Timeline UpdatesTrip UpdatesNews PostsPvt PostsTravel TipsAdmin PostsConv PostsFollowed PostsChat RequestsBlog PostsPNR Posts

Disclaimer
Search
 
 
Fri Aug 22, 2014 13:24:44 ISTHomeTrainsΣChainsAtlasPNRForumGalleryNewsFAQTripsMembersLoginFeedback
No Recent News for this Train
Other Trains in the News **new
Latest...
Will stop at all stations between Chhapra-Sonpur from 23/8/14-27/8/14 #1193871
Thu Aug 21, 2014 (10:02PM)
⇐ Return Journey: Train# 13019

13020/Bagh Express

Apr 15 2014 (7:52AM)
Change Departure Station:
Change Arrival Station:
Post a Train Travel TipPost a Train Travel Tip **new
Post a Comment/Question/Picture/VideoPost a Comment/Question/Picture/Video
Pantry/Catering
✕ NO Pantry Car
✓ Catering Avbl
Loco/Rake Reversals
RMU/Rampur Junction (3); LJN/Lucknow Junction (6);
RSA - Rake Sharing
Rake/Coach Composition
LOCO-SLR-GS-GS-A1-B1-S7-S6-S5-S4-S3-S2-S1-GS-GS-GS-SLR
Loco
IZN WDP-4D (KGM-BJU); HWH WAP-4 (BJU-HWH)
News    PNR    Forum    Time-Table    Availability    Fare Chart    Map    Arr/Dep History    Trips    Gallery    ΣChains    X/O    Timeline    
Travel Time: 35h 18m    57 halts    Distance: 1332 km    Avg Speed: 37 km/hr
Type: Mail/Express
Zone: ER/Eastern
Departs @ 21:55
Platform# 1
SMTWTFS
Kathgodam/KGM 
Arrives @ 09:13 +2 nights
Platform# ???
SMTWTFS
Andal Junction/UDL 

57 halts. 221 intermediate Stations between Kathgodam and Andal Junction

Show ALL intermediate Stations  Show Old Time-Table

#CodeStation NameX/OArrivesAvgDepartsAvgHaltPFDay#KmSpeedElevZoneAddress
1KGM»Kathgodam (3)»  -21:55-110.022520mNERKathgodam, Uttarakhand
2HDWHaldwani (3)  22:11-22:13-2m115.931443mNERHaldwani, Uttarakhand
3LKULal Kuan Junction (4)  22:45-22:50-5m--122.351262mNERLalkuan, Uttarakhand
4HLDDHaldi Road  22:59-23:01-2m--129.960236mNERNH 87, Uttarakhand
5RUPCRudrapur City (2)  23:15-23:17-2m--143.964208mNERUdham Singh Nagar, Uttarakhand
6BLQRBilaspur Road (1)  23:34-23:36-2m1161.937196mNERRampur, Uttar Pradesh
7RMURampur Junction (3)X00:20-00:45-25m--288.871190mNRRampur, Uttar Pradesh
8BEBareilly Junction (4)X  01:38-01:46-8m12151.864174mNRBareilly, Uttar Pradesh
9SPNShahjahanpur Junction (3)  02:52-02:57-5m--2222.355156mNRShahjahanpur, Uttar Pradesh
10ROZARoza Junction (4)X  03:05-03:07-2m--2229.669156mNRShahjahanpur, Uttar Pradesh
11HRIHardoi (5)X03:55-03:57-2m32285.251146mNRHardoi, Uttar Pradesh
12LJNLucknow Junction (6)X05:55-06:20-25m12386.314126mNERLucknow, Uttar Pradesh
13BNZBadshahnagar (2)  07:08-07:10-2m12397.437116mNERLucknow, Uttar Pradesh
14BBKBarabanki Junction (4)X  07:50-07:54-4m--2422.065122mNRPin-225001, Uttar Pradesh
15JLDJarwal Road (2)  08:34-08:36-2m--2465.171112mNERBehraich, Uttar Pradesh
16GDGonda Junction (3)X  09:15-09:25-10m22511.376110mNERGonda 271001, Uttar Pradesh
17BSTBasti (4)  10:35-10:40-5m--2599.78190mNERBasti 272001, Uttar Pradesh
18KLDKhalilabad (3)X  11:02-11:04-2m--2629.22786mNERKhalilabad- 272175, Uttar Pradesh
19GKPGorakhpur Junction (10)X  12:20-12:40-20m--2663.26484mNERGorakhpur 273001, Uttar Pradesh
20CCChauri Chaura (2)  13:03-13:05-2m--2687.56584mNERGorakhpur- PinCode:- 273201, Uttar Pradesh
21DEOSDeoria Sadar (3)  13:28-13:30-2m--2712.35079mNERDeoria- 274001, Uttar Pradesh
22BTTBhatni Junction (5)  13:55-14:00-5m--2733.15973mNERDeoria, Uttar Pradesh
23BHTRBhatpar Rani (2)X  14:13-14:15-2m--2745.96173mNERDeoria, Uttar Pradesh
24BTKBankata (2)  14:23-14:25-2m--2754.03573mNERDeoria, Uttar Pradesh
25MWMairwa (2)X  14:36-14:38-2m22760.53173mNERMairwa, Bihar
26ZRDEJiradei (2)X  14:59-15:01-2m--2771.54469mNERSiwan, Bihar
27SVSiwan Junction (4)X  15:15-15:25-10m--2781.87170mNERSiwan, Bihar
28DDADuraundha Junction (3)  15:40-15:42-2m--2799.65464mNERDistt: Siwan, Bihar
29CWChainwa (2)  15:51-15:53-2m--2807.72463mNERSiwan, Bihar
30EKMAEkma (3)X  16:11-16:13-2m--2815.12664mNERSaran, Bihar
31DDPDaudpur (2)O  16:33-16:35-2m--2823.72359mNERChhapra, Bihar
32CPRChhapra Junction (6)  17:25-17:35-10m--2843.06258mNERDistt: Saran, Bihar
33DGADighwara (2)X  18:05-18:07-2m--2873.97160mECR06158-281240, Bihar
34NYONayagaon (2)  18:17-18:19-2m--2885.73453mECRNayagaon Sarai, Bihar
35SEESonpur Junction (4)X  18:39-18:47-8m--2897.02556mECRSaran, Bihar
36HJPHajipur Junction (3)  19:00-19:02-2m--2902.57955mECR06224-272230, Bihar
37BNRBhagwanpur (2)  19:17-19:19-2m12922.26260mECRBhagwanpur, Bihar
38GRLGoraul (2)X  19:27-19:29-2m12930.53057mECRVAISHALI, Bihar
39MFPMuzaffarpur Junction (6)X  20:20-20:30-10m22956.47257mECRMuzaffarpur, Bihar
40DOLDholi (2)  20:51-20:53-2m--2981.567 ECRDistt. Muzaffarpur, Bihar
41KRBPKhudiram B Pusa  21:05-21:07-2m--2994.96352mECRDistt. Samastipur, Bihar
42KPGMKarpurigram (3)X  21:14-21:16-2m--21002.21651mECRState Highway 49, Bihar
43SPJSamastipur Junction (9)X  21:40-21:50-10m--21008.57055mECRSamastipur, Bihar
44DSSDalsingh Sarai (2)  22:10-22:12-2m221031.760 ECR06278-221238, Bihar
45BCABachwara JunctionO  22:23-22:25-2m--21042.71849mECRBegusarai, Bihar
46BJUBarauni Junction (9)23:20-00:10-50m--21059.12849mECRBegusarai, Bihar
47KIULKiul Junction (5)  01:35-01:40-5m--31098.33853mECRDist. Lakhisarai, Bihar
48JAJJhajha (4)X  03:05-03:15-10m--31151.670143mECRJhajha, Bihar
49STLSimultala (2)X  03:31-03:33-2m--31170.366247mERSimultala, Bihar
50JSMEJasidih Junction (5)X  03:56-04:01-5m--31195.722271mERJasidih, Jharkhand
51MDPMadhupur Junction (4)  05:20-05:24-4m--31224.863254mER06432-224478, Jharkhand
52VDSVidyasagar (2)X  05:47-05:49-2m231248.945250mERJamtara, Jharkhand
53JMTJamtara (2)  06:13-06:15-2m231266.845201mERJamtara, Jharkhand
54CRJChittaranjan (3)  06:34-06:36-2m231281.239182mERMihijam, Jharkhand
55RNPRRupnarayanpur (3)  06:43-06:45-2m131285.711191mERChittaranjan, West Bengal
56STNSitarampur Junction (5)XO  07:48-07:50-2m331297.513139mERG T Rd Before Asansol, West Bengal
57ASNAsansol Junction (7)  08:30-08:45-15m--31306.272113mERDist - bardhaman, West Bengal
58RNGRaniGanj (4)  09:00-09:02-2m--31324.34092mERRaniganj, West Bengal
59UDL•Andal Junction (6)•X  09:13-09:15-2m--31331.67386mERAndal, West Bengal
60DGRDurgapur (5)X  09:29-09:31-2m--31348.78571mERDurgapur, West Bengal
61PANPanagarh (4)X  09:42-09:44-2m--31364.36170mERKaksa, West Bengal
62BWNBarddhaman Junction (8)X  10:31-10:36-5m--31412.25934mERDist - Barddhaman, West Bengal
63BDCBandel Junction (7)  11:44-11:49-5m--31479.54614mERdist - HOOGHLY, West Bengal
64HWHKolkata Howrah Junction (23)  12:40--1331519.0-10mERHowrah 711101, West Bengal
Scroll to Top
Scroll to Bottom